Aviation Digital Data Service (ADDS)

Output produced by METARs form (0658 UTC 28 September 2022)
found at http://www.aviationweather.gov/metar/data/
 
METAR text: KSNA 280653Z AUTO 20004KT 10SM CLR 23/19 A2988 RMK AO2 SLP118 T02280189
Conditions at: KSNA (COSTA MESA , CA, US) observed 0653 UTC 28 September 2022
Temperature: 22.8°C (73°F)
Dewpoint: 18.9°C (66°F) [RH = 79%]
Pressure (altimeter): 29.88 inches Hg (1011.9 mb)
[Sea-level pressure: 1011.8 mb]
Winds: from the SSW (200 degrees) at 5 MPH (4 knots; 2.1 m/s)
Visibility: 10 or more miles (16+ km)
Ceiling: at least 12,000 feet AGL
Clouds: sky clear below 12,000 feet AGL
Weather: automated observation with no human augmentation;
there may or may not be significant weather present at this time

METAR text: KSNA 280553Z 22005KT 10SM CLR 23/19 A2988 RMK AO2 SLP118 LAST T02280189 10294 20228 51014
Conditions at: KSNA (COSTA MESA , CA, US) observed 0553 UTC 28 September 2022
Temperature: 22.8°C (73°F)
Dewpoint: 18.9°C (66°F) [RH = 79%]
Pressure (altimeter): 29.88 inches Hg (1011.9 mb)
[Sea-level pressure: 1011.8 mb]
Winds: from the SW (220 degrees) at 6 MPH (5 knots; 2.6 m/s)
Visibility: 10 or more miles (16+ km)
Ceiling: at least 12,000 feet AGL
Clouds: sky clear below 12,000 feet AGL
Weather: no significant weather observed at this time

Forecast for: KSNA (COSTA MESA , CA, US)
Text: KSNA 272337Z 2800/2824 21008KT P6SM SKC
Forecast period: 0000 to 0600 UTC 28 September 2022
Forecast type: FROM: standard forecast or significant change
Winds: from the SSW (210 degrees) at 9 MPH (8 knots; 4.1 m/s)
Visibility: 6 or more miles (10+ km)
Clouds: clear skies
Weather: no significant weather forecast for this period
Text: FM280600 VRB04KT P6SM SKC
Forecast period: 0600 to 1900 UTC 28 September 2022
Forecast type: FROM: standard forecast or significant change
Winds: variable direction winds at 5 MPH (4 knots; 2.1 m/s)
Visibility: 6 or more miles (10+ km)
Clouds: clear skies
Weather: no significant weather forecast for this period
Text: TEMPO 2812/2816 3SM BR BKN005
Forecast period: 1200 to 1600 UTC 28 September 2022
Forecast type: TEMPORARY: The following changes expected for less than half the time period
Visibility: 3 miles (5 km)
Ceiling: 500 feet AGL
Clouds: broken clouds at 500 feet AGL
Weather: BR  (mist)
Text: FM281900 22008KT P6SM SCT250
Forecast period: 1900 UTC 28 September 2022 to 0000 UTC 29 September 2022
Forecast type: FROM: standard forecast or significant change
Winds: from the SW (220 degrees) at 9 MPH (8 knots; 4.1 m/s)
Visibility: 6 or more miles (10+ km)
Ceiling: at least 12,000 feet AGL
Clouds: scattered clouds at 25000 feet AGL
Weather: no significant weather forecast for this period